Pleasant Plain, Indiana
Current Conditions -  °F | °C
As of 3:35 AM on Friday 19 Dec 2014 (Local Time) from KHHG Reporting Station
Overcast Overcast  
Wind Chill: 19°   Ceiling: 3000
Heat Index: 26°   Visibility: 10mi
Dew Point: 21°   Wind: 6mph
Humidity: 83%   Direction: 270°W
Pressure: 30.24"   Gusts: NA
Location:  40.6897°N, 85.3916°W
Report Text: KHHG 190835Z AUTO 27005KT 10SM OVC030 M03/M06 A3024 RMK AO2 T10341059
Loading
Personal Weather Stations






























Interactive Weather Map New forecast layout! Learn more

10-Day Weather Forecast

Advertisements
Track Severe Weather on mobile